sensor_id;sensor_type;location;lat;lon;timestamp;P1;durP1;ratioP1;P2;durP2;ratioP2
76115;SDS011;64847;45.778;12.802;2023-07-31T00:00:10;1.52;;;1.52;;
76115;SDS011;64847;45.778;12.802;2023-07-31T00:02:36;1.70;;;1.60;;
76115;SDS011;64847;45.778;12.802;2023-07-31T00:05:02;2.00;;;1.90;;
76115;SDS011;64847;45.778;12.802;2023-07-31T00:07:27;2.33;;;1.88;;
76115;SDS011;64847;45.778;12.802;2023-07-31T00:09:53;2.00;;;1.90;;
76115;SDS011;64847;45.778;12.802;2023-07-31T00:12:19;1.90;;;1.73;;
76115;SDS011;64847;45.778;12.802;2023-07-31T00:14:47;2.00;;;1.80;;
76115;SDS011;64847;45.778;12.802;2023-07-31T00:17:12;1.80;;;1.70;;
76115;SDS011;64847;45.778;12.802;2023-07-31T00:19:38;2.90;;;2.33;;
76115;SDS011;64847;45.778;12.802;2023-07-31T00:22:03;2.13;;;2.00;;
76115;SDS011;64847;45.778;12.802;2023-07-31T00:24:29;1.95;;;1.85;;
76115;SDS011;64847;45.778;12.802;2023-07-31T00:26:54;1.90;;;1.80;;
76115;SDS011;64847;45.778;12.802;2023-07-31T00:29:19;1.90;;;1.80;;
76115;SDS011;64847;45.778;12.802;2023-07-31T00:31:45;1.70;;;1.70;;
76115;SDS011;64847;45.778;12.802;2023-07-31T00:34:10;1.85;;;1.75;;
76115;SDS011;64847;45.778;12.802;2023-07-31T00:36:36;1.80;;;1.70;;
76115;SDS011;64847;45.778;12.802;2023-07-31T00:39:01;2.00;;;1.90;;
76115;SDS011;64847;45.778;12.802;2023-07-31T00:41:27;2.15;;;2.05;;
76115;SDS011;64847;45.778;12.802;2023-07-31T00:43:52;1.90;;;1.80;;
76115;SDS011;64847;45.778;12.802;2023-07-31T00:46:17;2.05;;;1.95;;
76115;SDS011;64847;45.778;12.802;2023-07-31T00:48:43;2.08;;;1.98;;
76115;SDS011;64847;45.778;12.802;2023-07-31T00:51:09;1.90;;;1.80;;
76115;SDS011;64847;45.778;12.802;2023-07-31T00:53:34;2.10;;;2.00;;
76115;SDS011;64847;45.778;12.802;2023-07-31T00:56:00;1.88;;;1.77;;
76115;SDS011;64847;45.778;12.802;2023-07-31T00:58:26;2.15;;;2.05;;
76115;SDS011;64847;45.778;12.802;2023-07-31T01:00:51;2.10;;;2.00;;
76115;SDS011;64847;45.778;12.802;2023-07-31T01:03:17;1.98;;;1.88;;
76115;SDS011;64847;45.778;12.802;2023-07-31T01:05:43;2.08;;;1.85;;
76115;SDS011;64847;45.778;12.802;2023-07-31T01:11:17;1.95;;;1.85;;
76115;SDS011;64847;45.778;12.802;2023-07-31T01:13:49;1.90;;;1.80;;
76115;SDS011;64847;45.778;12.802;2023-07-31T01:16:14;2.25;;;1.95;;
76115;SDS011;64847;45.778;12.802;2023-07-31T01:18:40;2.00;;;1.90;;
76115;SDS011;64847;45.778;12.802;2023-07-31T01:24:28;2.00;;;1.90;;
76115;SDS011;64847;45.778;12.802;2023-07-31T01:27:04;2.17;;;2.00;;
76115;SDS011;64847;45.778;12.802;2023-07-31T01:29:38;2.55;;;1.92;;
76115;SDS011;64847;45.778;12.802;2023-07-31T01:32:20;3.13;;;2.00;;
76115;SDS011;64847;45.778;12.802;2023-07-31T01:34:47;2.13;;;2.03;;
76115;SDS011;64847;45.778;12.802;2023-07-31T01:37:12;2.03;;;1.92;;
76115;SDS011;64847;45.778;12.802;2023-07-31T01:39:38;1.75;;;1.75;;
76115;SDS011;64847;45.778;12.802;2023-07-31T01:42:03;2.85;;;1.83;;
76115;SDS011;64847;45.778;12.802;2023-07-31T01:44:29;2.00;;;1.90;;
76115;SDS011;64847;45.778;12.802;2023-07-31T01:46:54;2.10;;;2.00;;
76115;SDS011;64847;45.778;12.802;2023-07-31T01:49:20;2.13;;;2.03;;
76115;SDS011;64847;45.778;12.802;2023-07-31T01:51:45;2.42;;;2.10;;
76115;SDS011;64847;45.778;12.802;2023-07-31T01:54:10;2.10;;;1.98;;
76115;SDS011;64847;45.778;12.802;2023-07-31T01:56:36;2.28;;;2.17;;
76115;SDS011;64847;45.778;12.802;2023-07-31T01:59:01;2.00;;;1.90;;
76115;SDS011;64847;45.778;12.802;2023-07-31T02:01:27;1.67;;;1.58;;
76115;SDS011;64847;45.778;12.802;2023-07-31T02:03:52;1.90;;;1.80;;
76115;SDS011;64847;45.778;12.802;2023-07-31T02:06:19;1.88;;;1.77;;
76115;SDS011;64847;45.778;12.802;2023-07-31T02:08:44;1.80;;;1.80;;
76115;SDS011;64847;45.778;12.802;2023-07-31T02:11:10;1.65;;;1.60;;
76115;SDS011;64847;45.778;12.802;2023-07-31T02:13:35;2.35;;;1.70;;
76115;SDS011;64847;45.778;12.802;2023-07-31T02:16:00;1.50;;;1.40;;
76115;SDS011;64847;45.778;12.802;2023-07-31T02:18:26;1.90;;;1.73;;
76115;SDS011;64847;45.778;12.802;2023-07-31T02:20:52;1.73;;;1.63;;
76115;SDS011;64847;45.778;12.802;2023-07-31T02:23:20;1.88;;;1.77;;
76115;SDS011;64847;45.778;12.802;2023-07-31T02:25:46;1.95;;;1.83;;
76115;SDS011;64847;45.778;12.802;2023-07-31T02:28:11;1.58;;;1.48;;
76115;SDS011;64847;45.778;12.802;2023-07-31T02:30:37;1.73;;;1.70;;
76115;SDS011;64847;45.778;12.802;2023-07-31T02:33:03;2.28;;;1.90;;
76115;SDS011;64847;45.778;12.802;2023-07-31T02:35:29;1.90;;;1.80;;
76115;SDS011;64847;45.778;12.802;2023-07-31T02:37:54;2.00;;;1.90;;
76115;SDS011;64847;45.778;12.802;2023-07-31T02:40:20;1.77;;;1.70;;
76115;SDS011;64847;45.778;12.802;2023-07-31T02:42:45;1.98;;;1.80;;
76115;SDS011;64847;45.778;12.802;2023-07-31T02:45:10;1.85;;;1.75;;
76115;SDS011;64847;45.778;12.802;2023-07-31T02:47:36;2.05;;;1.50;;
76115;SDS011;64847;45.778;12.802;2023-07-31T02:50:02;1.55;;;1.50;;
76115;SDS011;64847;45.778;12.802;2023-07-31T02:52:28;1.80;;;1.70;;
76115;SDS011;64847;45.778;12.802;2023-07-31T02:54:53;1.70;;;1.60;;
76115;SDS011;64847;45.778;12.802;2023-07-31T02:57:19;2.05;;;1.88;;
76115;SDS011;64847;45.778;12.802;2023-07-31T02:59:45;1.73;;;1.63;;
76115;SDS011;64847;45.778;12.802;2023-07-31T03:02:10;2.20;;;1.90;;
76115;SDS011;64847;45.778;12.802;2023-07-31T03:04:37;3.00;;;2.10;;
76115;SDS011;64847;45.778;12.802;2023-07-31T03:07:02;2.00;;;1.90;;
76115;SDS011;64847;45.778;12.802;2023-07-31T03:09:28;1.98;;;1.70;;
76115;SDS011;64847;45.778;12.802;2023-07-31T03:11:53;1.95;;;1.83;;
76115;SDS011;64847;45.778;12.802;2023-07-31T03:14:19;1.80;;;1.70;;
76115;SDS011;64847;45.778;12.802;2023-07-31T03:16:44;1.88;;;1.75;;
76115;SDS011;64847;45.778;12.802;2023-07-31T03:19:09;1.90;;;1.80;;
76115;SDS011;64847;45.778;12.802;2023-07-31T03:21:35;1.80;;;1.70;;
76115;SDS011;64847;45.778;12.802;2023-07-31T03:24:00;1.75;;;1.65;;
76115;SDS011;64847;45.778;12.802;2023-07-31T03:26:26;1.70;;;1.58;;
76115;SDS011;64847;45.778;12.802;2023-07-31T03:28:51;2.67;;;1.83;;
76115;SDS011;64847;45.778;12.802;2023-07-31T03:31:16;1.60;;;1.50;;
76115;SDS011;64847;45.778;12.802;2023-07-31T03:33:42;1.70;;;1.60;;
76115;SDS011;64847;45.778;12.802;2023-07-31T03:36:07;1.90;;;1.65;;
76115;SDS011;64847;45.778;12.802;2023-07-31T03:38:33;1.80;;;1.70;;
76115;SDS011;64847;45.778;12.802;2023-07-31T03:40:59;3.83;;;1.50;;
76115;SDS011;64847;45.778;12.802;2023-07-31T03:43:24;1.48;;;1.48;;
76115;SDS011;64847;45.778;12.802;2023-07-31T03:45:50;1.60;;;1.50;;
76115;SDS011;64847;45.778;12.802;2023-07-31T03:48:15;1.75;;;1.65;;
76115;SDS011;64847;45.778;12.802;2023-07-31T03:50:41;1.40;;;1.35;;
76115;SDS011;64847;45.778;12.802;2023-07-31T03:53:07;1.63;;;1.52;;
76115;SDS011;64847;45.778;12.802;2023-07-31T03:55:32;1.35;;;1.30;;
76115;SDS011;64847;45.778;12.802;2023-07-31T03:57:58;1.50;;;1.50;;
76115;SDS011;64847;45.778;12.802;2023-07-31T04:00:25;1.67;;;1.50;;
76115;SDS011;64847;45.778;12.802;2023-07-31T04:02:51;1.52;;;1.42;;
76115;SDS011;64847;45.778;12.802;2023-07-31T04:05:16;1.30;;;1.30;;
76115;SDS011;64847;45.778;12.802;2023-07-31T04:07:42;1.52;;;1.40;;
76115;SDS011;64847;45.778;12.802;2023-07-31T04:10:07;1.50;;;1.40;;
76115;SDS011;64847;45.778;12.802;2023-07-31T04:12:33;1.63;;;1.52;;
76115;SDS011;64847;45.778;12.802;2023-07-31T04:14:58;1.48;;;1.40;;
76115;SDS011;64847;45.778;12.802;2023-07-31T04:17:24;1.48;;;1.20;;
76115;SDS011;64847;45.778;12.802;2023-07-31T04:19:49;1.30;;;1.30;;
76115;SDS011;64847;45.778;12.802;2023-07-31T04:22:15;2.08;;;1.70;;
76115;SDS011;64847;45.778;12.802;2023-07-31T04:24:40;1.20;;;1.20;;
76115;SDS011;64847;45.778;12.802;2023-07-31T04:27:05;1.33;;;1.33;;
76115;SDS011;64847;45.778;12.802;2023-07-31T04:29:31;1.23;;;1.23;;
76115;SDS011;64847;45.778;12.802;2023-07-31T04:31:56;1.40;;;1.40;;
76115;SDS011;64847;45.778;12.802;2023-07-31T04:34:22;1.30;;;1.30;;
76115;SDS011;64847;45.778;12.802;2023-07-31T04:36:47;2.25;;;1.30;;
76115;SDS011;64847;45.778;12.802;2023-07-31T04:39:12;1.25;;;1.25;;
76115;SDS011;64847;45.778;12.802;2023-07-31T04:41:38;1.30;;;1.20;;
76115;SDS011;64847;45.778;12.802;2023-07-31T04:44:03;1.50;;;1.40;;
76115;SDS011;64847;45.778;12.802;2023-07-31T04:46:29;2.35;;;1.50;;
76115;SDS011;64847;45.778;12.802;2023-07-31T04:48:54;1.30;;;1.30;;
76115;SDS011;64847;45.778;12.802;2023-07-31T04:51:20;1.35;;;1.35;;
76115;SDS011;64847;45.778;12.802;2023-07-31T04:53:46;2.30;;;1.52;;
76115;SDS011;64847;45.778;12.802;2023-07-31T04:56:11;1.40;;;1.40;;
76115;SDS011;64847;45.778;12.802;2023-07-31T04:58:37;1.30;;;1.30;;
76115;SDS011;64847;45.778;12.802;2023-07-31T05:01:02;1.85;;;1.50;;
76115;SDS011;64847;45.778;12.802;2023-07-31T05:03:28;1.38;;;1.33;;
76115;SDS011;64847;45.778;12.802;2023-07-31T05:05:53;1.20;;;1.20;;
76115;SDS011;64847;45.778;12.802;2023-07-31T05:08:18;1.35;;;1.33;;
76115;SDS011;64847;45.778;12.802;2023-07-31T05:10:44;1.20;;;1.20;;
76115;SDS011;64847;45.778;12.802;2023-07-31T05:13:09;1.20;;;1.20;;
76115;SDS011;64847;45.778;12.802;2023-07-31T05:15:35;1.20;;;1.20;;
76115;SDS011;64847;45.778;12.802;2023-07-31T05:18:00;1.20;;;1.20;;
76115;SDS011;64847;45.778;12.802;2023-07-31T05:20:26;1.33;;;1.30;;
76115;SDS011;64847;45.778;12.802;2023-07-31T05:22:52;2.13;;;1.60;;
76115;SDS011;64847;45.778;12.802;2023-07-31T05:25:18;1.27;;;1.27;;
76115;SDS011;64847;45.778;12.802;2023-07-31T05:27:43;1.52;;;1.42;;
76115;SDS011;64847;45.778;12.802;2023-07-31T05:30:08;1.38;;;1.33;;
76115;SDS011;64847;45.778;12.802;2023-07-31T05:32:34;1.38;;;1.38;;
76115;SDS011;64847;45.778;12.802;2023-07-31T05:34:59;1.48;;;1.42;;
76115;SDS011;64847;45.778;12.802;2023-07-31T05:37:25;1.20;;;1.20;;
76115;SDS011;64847;45.778;12.802;2023-07-31T05:39:52;1.48;;;1.33;;
76115;SDS011;64847;45.778;12.802;2023-07-31T05:42:17;1.40;;;1.30;;
76115;SDS011;64847;45.778;12.802;2023-07-31T05:44:43;1.33;;;1.30;;
76115;SDS011;64847;45.778;12.802;2023-07-31T05:47:08;1.65;;;1.55;;
76115;SDS011;64847;45.778;12.802;2023-07-31T05:49:34;1.45;;;1.45;;
76115;SDS011;64847;45.778;12.802;2023-07-31T05:51:59;1.30;;;1.30;;
76115;SDS011;64847;45.778;12.802;2023-07-31T05:54:25;1.35;;;1.35;;
76115;SDS011;64847;45.778;12.802;2023-07-31T05:56:50;1.50;;;1.48;;
76115;SDS011;64847;45.778;12.802;2023-07-31T05:59:15;1.55;;;1.50;;
76115;SDS011;64847;45.778;12.802;2023-07-31T06:01:41;1.40;;;1.40;;
76115;SDS011;64847;45.778;12.802;2023-07-31T06:04:06;1.90;;;1.50;;
76115;SDS011;64847;45.778;12.802;2023-07-31T06:06:32;1.40;;;1.30;;
76115;SDS011;64847;45.778;12.802;2023-07-31T06:08:57;1.40;;;1.40;;
76115;SDS011;64847;45.778;12.802;2023-07-31T06:11:22;1.15;;;1.15;;
76115;SDS011;64847;45.778;12.802;2023-07-31T06:13:48;1.10;;;1.10;;
76115;SDS011;64847;45.778;12.802;2023-07-31T06:16:14;1.23;;;1.23;;
76115;SDS011;64847;45.778;12.802;2023-07-31T06:18:40;1.40;;;1.30;;
76115;SDS011;64847;45.778;12.802;2023-07-31T06:21:06;1.25;;;1.25;;
76115;SDS011;64847;45.778;12.802;2023-07-31T06:23:32;1.83;;;1.52;;
76115;SDS011;64847;45.778;12.802;2023-07-31T06:25:57;1.40;;;1.40;;
76115;SDS011;64847;45.778;12.802;2023-07-31T06:28:27;1.38;;;1.38;;
76115;SDS011;64847;45.778;12.802;2023-07-31T06:30:54;1.27;;;1.27;;
76115;SDS011;64847;45.778;12.802;2023-07-31T06:33:19;1.70;;;1.60;;
76115;SDS011;64847;45.778;12.802;2023-07-31T06:35:45;1.55;;;1.50;;
76115;SDS011;64847;45.778;12.802;2023-07-31T06:38:10;1.40;;;1.40;;
76115;SDS011;64847;45.778;12.802;2023-07-31T06:40:36;1.48;;;1.42;;
76115;SDS011;64847;45.778;12.802;2023-07-31T06:43:01;1.40;;;1.40;;
76115;SDS011;64847;45.778;12.802;2023-07-31T06:45:33;1.40;;;1.40;;
76115;SDS011;64847;45.778;12.802;2023-07-31T06:48:01;1.40;;;1.40;;
76115;SDS011;64847;45.778;12.802;2023-07-31T06:50:28;1.50;;;1.50;;
76115;SDS011;64847;45.778;12.802;2023-07-31T06:52:54;1.40;;;1.40;;
76115;SDS011;64847;45.778;12.802;2023-07-31T06:55:20;1.40;;;1.40;;
76115;SDS011;64847;45.778;12.802;2023-07-31T06:57:47;1.20;;;1.20;;
76115;SDS011;64847;45.778;12.802;2023-07-31T07:00:13;1.40;;;1.40;;
76115;SDS011;64847;45.778;12.802;2023-07-31T07:02:39;1.70;;;1.60;;
76115;SDS011;64847;45.778;12.802;2023-07-31T07:05:04;1.30;;;1.30;;
76115;SDS011;64847;45.778;12.802;2023-07-31T07:07:31;1.50;;;1.50;;
76115;SDS011;64847;45.778;12.802;2023-07-31T07:09:57;1.65;;;1.55;;
76115;SDS011;64847;45.778;12.802;2023-07-31T07:12:24;1.20;;;1.20;;
76115;SDS011;64847;45.778;12.802;2023-07-31T07:14:50;1.63;;;1.52;;
76115;SDS011;64847;45.778;12.802;2023-07-31T07:17:17;2.30;;;1.60;;
76115;SDS011;64847;45.778;12.802;2023-07-31T07:19:43;1.38;;;1.38;;
76115;SDS011;64847;45.778;12.802;2023-07-31T07:22:10;1.40;;;1.40;;
76115;SDS011;64847;45.778;12.802;2023-07-31T07:24:35;1.50;;;1.50;;
76115;SDS011;64847;45.778;12.802;2023-07-31T07:27:00;1.30;;;1.30;;
76115;SDS011;64847;45.778;12.802;2023-07-31T07:29:26;1.52;;;1.42;;
76115;SDS011;64847;45.778;12.802;2023-07-31T07:31:51;1.70;;;1.60;;
76115;SDS011;64847;45.778;12.802;2023-07-31T07:34:17;1.40;;;1.40;;
76115;SDS011;64847;45.778;12.802;2023-07-31T07:36:42;1.40;;;1.40;;
76115;SDS011;64847;45.778;12.802;2023-07-31T07:39:08;1.40;;;1.40;;
76115;SDS011;64847;45.778;12.802;2023-07-31T07:41:34;1.45;;;1.45;;
76115;SDS011;64847;45.778;12.802;2023-07-31T07:44:02;1.60;;;1.50;;
76115;SDS011;64847;45.778;12.802;2023-07-31T07:46:27;1.42;;;1.40;;
76115;SDS011;64847;45.778;12.802;2023-07-31T07:48:53;1.58;;;1.48;;
76115;SDS011;64847;45.778;12.802;2023-07-31T07:51:18;1.50;;;1.40;;
76115;SDS011;64847;45.778;12.802;2023-07-31T07:53:43;1.40;;;1.40;;
76115;SDS011;64847;45.778;12.802;2023-07-31T07:56:09;1.40;;;1.40;;
76115;SDS011;64847;45.778;12.802;2023-07-31T07:58:34;1.60;;;1.50;;
76115;SDS011;64847;45.778;12.802;2023-07-31T08:00:59;1.50;;;1.50;;
76115;SDS011;64847;45.778;12.802;2023-07-31T08:03:25;1.55;;;1.55;;
76115;SDS011;64847;45.778;12.802;2023-07-31T08:05:50;1.60;;;1.45;;
76115;SDS011;64847;45.778;12.802;2023-07-31T08:08:16;1.60;;;1.60;;
76115;SDS011;64847;45.778;12.802;2023-07-31T08:10:42;1.38;;;1.38;;
76115;SDS011;64847;45.778;12.802;2023-07-31T08:13:07;1.63;;;1.52;;
76115;SDS011;64847;45.778;12.802;2023-07-31T08:15:33;1.58;;;1.58;;
76115;SDS011;64847;45.778;12.802;2023-07-31T08:17:58;1.50;;;1.50;;
76115;SDS011;64847;45.778;12.802;2023-07-31T08:20:23;1.42;;;1.42;;
76115;SDS011;64847;45.778;12.802;2023-07-31T08:22:49;1.45;;;1.45;;
76115;SDS011;64847;45.778;12.802;2023-07-31T08:25:14;1.50;;;1.45;;
76115;SDS011;64847;45.778;12.802;2023-07-31T08:27:43;2.17;;;1.40;;
76115;SDS011;64847;45.778;12.802;2023-07-31T08:30:08;1.38;;;1.38;;
76115;SDS011;64847;45.778;12.802;2023-07-31T08:32:34;1.67;;;1.60;;
76115;SDS011;64847;45.778;12.802;2023-07-31T08:34:59;1.63;;;1.50;;
76115;SDS011;64847;45.778;12.802;2023-07-31T08:37:25;1.80;;;1.70;;
76115;SDS011;64847;45.778;12.802;2023-07-31T08:39:50;1.35;;;1.35;;
76115;SDS011;64847;45.778;12.802;2023-07-31T08:42:16;1.40;;;1.40;;
76115;SDS011;64847;45.778;12.802;2023-07-31T08:44:41;1.42;;;1.42;;
76115;SDS011;64847;45.778;12.802;2023-07-31T08:47:08;1.50;;;1.50;;
76115;SDS011;64847;45.778;12.802;2023-07-31T08:49:34;1.42;;;1.42;;
76115;SDS011;64847;45.778;12.802;2023-07-31T08:52:00;1.40;;;1.40;;
76115;SDS011;64847;45.778;12.802;2023-07-31T08:54:25;1.30;;;1.30;;
76115;SDS011;64847;45.778;12.802;2023-07-31T08:56:55;1.50;;;1.50;;
76115;SDS011;64847;45.778;12.802;2023-07-31T08:59:21;1.40;;;1.40;;
76115;SDS011;64847;45.778;12.802;2023-07-31T09:01:48;1.35;;;1.35;;
76115;SDS011;64847;45.778;12.802;2023-07-31T09:04:15;1.40;;;1.40;;
76115;SDS011;64847;45.778;12.802;2023-07-31T09:06:42;1.50;;;1.50;;
76115;SDS011;64847;45.778;12.802;2023-07-31T09:09:07;1.60;;;1.60;;
76115;SDS011;64847;45.778;12.802;2023-07-31T09:11:34;1.67;;;1.58;;
76115;SDS011;64847;45.778;12.802;2023-07-31T09:13:59;1.30;;;1.30;;
76115;SDS011;64847;45.778;12.802;2023-07-31T09:16:30;1.60;;;1.50;;
76115;SDS011;64847;45.778;12.802;2023-07-31T09:18:57;1.80;;;1.70;;
76115;SDS011;64847;45.778;12.802;2023-07-31T09:21:23;1.30;;;1.30;;
76115;SDS011;64847;45.778;12.802;2023-07-31T09:23:50;1.40;;;1.40;;
76115;SDS011;64847;45.778;12.802;2023-07-31T09:29:01;1.45;;;1.45;;
76115;SDS011;64847;45.778;12.802;2023-07-31T09:31:32;1.40;;;1.40;;
76115;SDS011;64847;45.778;12.802;2023-07-31T09:33:59;1.63;;;1.63;;
76115;SDS011;64847;45.778;12.802;2023-07-31T09:36:25;1.60;;;1.60;;
76115;SDS011;64847;45.778;12.802;2023-07-31T09:38:54;1.70;;;1.60;;
76115;SDS011;64847;45.778;12.802;2023-07-31T09:41:19;1.80;;;1.70;;
76115;SDS011;64847;45.778;12.802;2023-07-31T09:43:52;1.48;;;1.48;;
76115;SDS011;64847;45.778;12.802;2023-07-31T09:46:18;1.60;;;1.50;;
76115;SDS011;64847;45.778;12.802;2023-07-31T09:48:45;1.60;;;1.60;;
76115;SDS011;64847;45.778;12.802;2023-07-31T09:51:11;1.50;;;1.50;;
76115;SDS011;64847;45.778;12.802;2023-07-31T09:53:37;1.55;;;1.55;;
76115;SDS011;64847;45.778;12.802;2023-07-31T09:56:02;1.40;;;1.40;;
76115;SDS011;64847;45.778;12.802;2023-07-31T09:58:29;1.50;;;1.50;;
76115;SDS011;64847;45.778;12.802;2023-07-31T10:00:55;1.75;;;1.60;;
76115;SDS011;64847;45.778;12.802;2023-07-31T10:03:22;1.50;;;1.50;;
76115;SDS011;64847;45.778;12.802;2023-07-31T10:05:49;1.52;;;1.42;;
76115;SDS011;64847;45.778;12.802;2023-07-31T10:08:15;1.60;;;1.60;;
76115;SDS011;64847;45.778;12.802;2023-07-31T10:10:42;1.52;;;1.50;;
76115;SDS011;64847;45.778;12.802;2023-07-31T10:13:08;1.50;;;1.50;;
76115;SDS011;64847;45.778;12.802;2023-07-31T10:15:34;1.60;;;1.60;;
76115;SDS011;64847;45.778;12.802;2023-07-31T10:17:59;1.63;;;1.60;;
76115;SDS011;64847;45.778;12.802;2023-07-31T10:20:25;1.55;;;1.55;;
76115;SDS011;64847;45.778;12.802;2023-07-31T10:22:52;1.55;;;1.48;;
76115;SDS011;64847;45.778;12.802;2023-07-31T10:25:20;2.30;;;1.80;;
76115;SDS011;64847;45.778;12.802;2023-07-31T10:27:47;1.73;;;1.73;;
76115;SDS011;64847;45.778;12.802;2023-07-31T10:30:14;1.80;;;1.70;;
76115;SDS011;64847;45.778;12.802;2023-07-31T10:32:41;1.50;;;1.50;;
76115;SDS011;64847;45.778;12.802;2023-07-31T10:35:07;1.42;;;1.42;;
76115;SDS011;64847;45.778;12.802;2023-07-31T10:37:40;1.50;;;1.50;;
76115;SDS011;64847;45.778;12.802;2023-07-31T10:42:49;1.70;;;1.70;;
76115;SDS011;64847;45.778;12.802;2023-07-31T10:45:23;1.30;;;1.30;;
76115;SDS011;64847;45.778;12.802;2023-07-31T10:48:02;1.40;;;1.40;;
76115;SDS011;64847;45.778;12.802;2023-07-31T10:50:29;1.42;;;1.40;;
76115;SDS011;64847;45.778;12.802;2023-07-31T10:52:57;1.55;;;1.45;;
76115;SDS011;64847;45.778;12.802;2023-07-31T10:55:30;1.45;;;1.45;;
76115;SDS011;64847;45.778;12.802;2023-07-31T10:57:57;1.48;;;1.48;;
76115;SDS011;64847;45.778;12.802;2023-07-31T11:00:32;1.50;;;1.50;;
76115;SDS011;64847;45.778;12.802;2023-07-31T11:02:58;1.60;;;1.50;;
76115;SDS011;64847;45.778;12.802;2023-07-31T11:08:23;1.60;;;1.52;;
76115;SDS011;64847;45.778;12.802;2023-07-31T11:13:28;1.40;;;1.40;;
76115;SDS011;64847;45.778;12.802;2023-07-31T11:16:16;1.30;;;1.30;;
76115;SDS011;64847;45.778;12.802;2023-07-31T11:18:43;1.40;;;1.40;;
76115;SDS011;64847;45.778;12.802;2023-07-31T11:21:13;1.48;;;1.48;;
76115;SDS011;64847;45.778;12.802;2023-07-31T11:23:40;1.30;;;1.30;;
76115;SDS011;64847;45.778;12.802;2023-07-31T11:26:06;1.27;;;1.27;;
76115;SDS011;64847;45.778;12.802;2023-07-31T11:28:32;1.50;;;1.50;;
76115;SDS011;64847;45.778;12.802;2023-07-31T11:30:59;1.30;;;1.30;;
76115;SDS011;64847;45.778;12.802;2023-07-31T11:33:25;1.48;;;1.38;;
76115;SDS011;64847;45.778;12.802;2023-07-31T11:35:50;1.67;;;1.60;;
76115;SDS011;64847;45.778;12.802;2023-07-31T11:38:22;1.90;;;1.80;;
76115;SDS011;64847;45.778;12.802;2023-07-31T11:40:49;1.50;;;1.50;;
76115;SDS011;64847;45.778;12.802;2023-07-31T11:43:14;1.40;;;1.40;;
76115;SDS011;64847;45.778;12.802;2023-07-31T11:45:44;1.55;;;1.45;;
76115;SDS011;64847;45.778;12.802;2023-07-31T11:50:46;1.75;;;1.40;;
76115;SDS011;64847;45.778;12.802;2023-07-31T11:53:14;1.40;;;1.40;;
76115;SDS011;64847;45.778;12.802;2023-07-31T11:55:40;1.40;;;1.40;;
76115;SDS011;64847;45.778;12.802;2023-07-31T11:58:06;1.38;;;1.38;;
76115;SDS011;64847;45.778;12.802;2023-07-31T12:00:31;1.58;;;1.58;;
76115;SDS011;64847;45.778;12.802;2023-07-31T12:02:57;1.50;;;1.50;;
76115;SDS011;64847;45.778;12.802;2023-07-31T12:05:22;1.70;;;1.70;;
76115;SDS011;64847;45.778;12.802;2023-07-31T12:07:54;1.45;;;1.40;;
76115;SDS011;64847;45.778;12.802;2023-07-31T12:10:27;1.60;;;1.60;;
76115;SDS011;64847;45.778;12.802;2023-07-31T12:12:58;1.42;;;1.42;;
76115;SDS011;64847;45.778;12.802;2023-07-31T12:15:43;1.40;;;1.40;;
76115;SDS011;64847;45.778;12.802;2023-07-31T12:18:10;1.58;;;1.58;;
76115;SDS011;64847;45.778;12.802;2023-07-31T12:20:44;1.50;;;1.50;;
76115;SDS011;64847;45.778;12.802;2023-07-31T12:23:14;1.70;;;1.70;;
76115;SDS011;64847;45.778;12.802;2023-07-31T12:25:43;1.40;;;1.40;;
76115;SDS011;64847;45.778;12.802;2023-07-31T12:28:09;1.30;;;1.30;;
76115;SDS011;64847;45.778;12.802;2023-07-31T12:30:38;1.45;;;1.45;;
76115;SDS011;64847;45.778;12.802;2023-07-31T12:33:14;1.63;;;1.63;;
76115;SDS011;64847;45.778;12.802;2023-07-31T12:35:41;1.60;;;1.60;;
76115;SDS011;64847;45.778;12.802;2023-07-31T12:38:10;1.42;;;1.42;;
76115;SDS011;64847;45.778;12.802;2023-07-31T12:40:40;1.35;;;1.35;;
76115;SDS011;64847;45.778;12.802;2023-07-31T12:43:06;1.50;;;1.50;;
76115;SDS011;64847;45.778;12.802;2023-07-31T12:45:33;1.40;;;1.40;;
76115;SDS011;64847;45.778;12.802;2023-07-31T12:47:59;1.42;;;1.42;;
76115;SDS011;64847;45.778;12.802;2023-07-31T12:50:25;1.70;;;1.60;;
76115;SDS011;64847;45.778;12.802;2023-07-31T12:52:51;1.50;;;1.50;;
76115;SDS011;64847;45.778;12.802;2023-07-31T12:55:16;1.60;;;1.60;;
76115;SDS011;64847;45.778;12.802;2023-07-31T12:57:43;1.50;;;1.50;;
76115;SDS011;64847;45.778;12.802;2023-07-31T13:00:09;1.55;;;1.55;;
76115;SDS011;64847;45.778;12.802;2023-07-31T13:02:34;1.52;;;1.50;;
76115;SDS011;64847;45.778;12.802;2023-07-31T13:05:00;1.40;;;1.40;;
76115;SDS011;64847;45.778;12.802;2023-07-31T13:07:26;1.40;;;1.40;;
76115;SDS011;64847;45.778;12.802;2023-07-31T13:09:51;1.20;;;1.20;;
76115;SDS011;64847;45.778;12.802;2023-07-31T13:12:17;1.60;;;1.60;;
76115;SDS011;64847;45.778;12.802;2023-07-31T13:14:42;1.38;;;1.33;;
76115;SDS011;64847;45.778;12.802;2023-07-31T13:17:08;1.42;;;1.42;;
76115;SDS011;64847;45.778;12.802;2023-07-31T13:19:33;1.33;;;1.33;;
76115;SDS011;64847;45.778;12.802;2023-07-31T13:21:59;1.40;;;1.30;;
76115;SDS011;64847;45.778;12.802;2023-07-31T13:24:24;1.30;;;1.30;;
76115;SDS011;64847;45.778;12.802;2023-07-31T13:26:50;1.30;;;1.30;;
76115;SDS011;64847;45.778;12.802;2023-07-31T13:29:15;1.20;;;1.20;;
76115;SDS011;64847;45.778;12.802;2023-07-31T13:31:40;1.30;;;1.30;;
76115;SDS011;64847;45.778;12.802;2023-07-31T13:34:06;1.33;;;1.33;;
76115;SDS011;64847;45.778;12.802;2023-07-31T13:36:31;1.27;;;1.27;;
76115;SDS011;64847;45.778;12.802;2023-07-31T13:38:59;1.30;;;1.30;;
76115;SDS011;64847;45.778;12.802;2023-07-31T13:41:24;1.40;;;1.40;;
76115;SDS011;64847;45.778;12.802;2023-07-31T13:43:50;1.40;;;1.30;;
76115;SDS011;64847;45.778;12.802;2023-07-31T13:46:15;1.25;;;1.25;;
76115;SDS011;64847;45.778;12.802;2023-07-31T13:48:40;1.40;;;1.40;;
76115;SDS011;64847;45.778;12.802;2023-07-31T13:51:06;1.25;;;1.25;;
76115;SDS011;64847;45.778;12.802;2023-07-31T13:53:31;1.40;;;1.40;;
76115;SDS011;64847;45.778;12.802;2023-07-31T13:55:57;1.30;;;1.30;;
76115;SDS011;64847;45.778;12.802;2023-07-31T13:58:22;1.35;;;1.35;;
76115;SDS011;64847;45.778;12.802;2023-07-31T14:00:48;1.35;;;1.35;;
76115;SDS011;64847;45.778;12.802;2023-07-31T14:03:13;1.27;;;1.27;;
76115;SDS011;64847;45.778;12.802;2023-07-31T14:05:39;1.40;;;1.40;;
76115;SDS011;64847;45.778;12.802;2023-07-31T14:08:04;1.35;;;1.35;;
76115;SDS011;64847;45.778;12.802;2023-07-31T14:10:29;1.38;;;1.38;;
76115;SDS011;64847;45.778;12.802;2023-07-31T14:12:55;1.25;;;1.25;;
76115;SDS011;64847;45.778;12.802;2023-07-31T14:15:20;1.50;;;1.50;;
76115;SDS011;64847;45.778;12.802;2023-07-31T14:17:46;1.40;;;1.40;;
76115;SDS011;64847;45.778;12.802;2023-07-31T14:20:11;1.33;;;1.30;;
76115;SDS011;64847;45.778;12.802;2023-07-31T14:22:37;1.40;;;1.40;;
76115;SDS011;64847;45.778;12.802;2023-07-31T14:25:03;1.20;;;1.20;;
76115;SDS011;64847;45.778;12.802;2023-07-31T14:27:29;1.30;;;1.30;;
76115;SDS011;64847;45.778;12.802;2023-07-31T14:29:54;1.40;;;1.40;;
76115;SDS011;64847;45.778;12.802;2023-07-31T14:32:20;1.20;;;1.20;;
76115;SDS011;64847;45.778;12.802;2023-07-31T14:34:48;1.35;;;1.35;;
76115;SDS011;64847;45.778;12.802;2023-07-31T14:37:13;1.27;;;1.27;;
76115;SDS011;64847;45.778;12.802;2023-07-31T14:39:39;1.40;;;1.40;;
76115;SDS011;64847;45.778;12.802;2023-07-31T14:42:04;1.30;;;1.30;;
76115;SDS011;64847;45.778;12.802;2023-07-31T14:44:30;1.27;;;1.27;;
76115;SDS011;64847;45.778;12.802;2023-07-31T14:46:55;1.40;;;1.40;;